Dawn Merchant — MYIL6 — position and weather

sailwx.info

Track history (hours):
 
Tides and Currents Weather Stations Pressure Air Temp Water Temp Dewpoint Dewpoint Depression Visibility Wind Speed Wind Dir Waves Ship Positions

Dawn Merchant

Operator: Norfolk Line

Last reported at 2019-Jul-22 06:29 UTC. Time now 2019-Jul-22 06:49 UTC.
Position S 41°16' E 174°47'.

Length 180 m; draft 5.8 m.

Type: Passenger vessel. MMSI: 232197000.

Date/timePositionNaut miles runAvg speedWind from/ knotsBaromVisibWave heightAir tempDewpointWater temp
2019-Jul-22 06:29S 41°16' E 174°47'0 0.0
2019-Jul-22 05:59S 41°16' E 174°47'0 0.0
2019-Jul-22 05:30S 41°16' E 174°47'3 5.3
2019-Jul-22 05:00S 41°16' E 174°51'714.8
2019-Jul-22 04:30S 41°24' E 174°48'918.2
2019-Jul-22 04:01S 41°22' E 174°36'918.3
2019-Jul-22 03:30S 41°17' E 174°26'815.2
2019-Jul-22 03:00S 41°14' E 174°17'714.1
2019-Jul-22 02:30S 41°14' E 174°07'612.1
2019-Jul-22 02:00S 41°17' E 174°00'0 0.0
2019-Jul-22 01:30S 41°17' E 174°00'0 0.0
2019-Jul-22 01:00S 41°17' E 174°00'0 0.0
2019-Jul-22 00:30S 41°17' E 174°00'0 0.3
2019-Jul-22 00:00S 41°17' E 174°01'510.3
2019-Jul-21 23:30S 41°14' E 174°06'713.4
2019-Jul-21 23:01S 41°14' E 174°15'713.8
2019-Jul-21 22:30S 41°15' E 174°24'917.1
2019-Jul-21 22:00S 41°20' E 174°34'918.0
2019-Jul-21 21:30S 41°23' E 174°45'713.7
2019-Jul-21 21:00S 41°17' E 174°51'3 5.6
2019-Jul-21 20:29S 41°16' E 174°47'0 0.0
2019-Jul-21 19:50S 41°16' E 174°47'0 0.0
2019-Jul-21 19:29S 41°16' E 174°47'0 0.0
2019-Jul-21 18:59S 41°16' E 174°47'0 0.0
2019-Jul-21 18:29S 41°16' E 174°47'0 0.0
2019-Jul-21 17:59S 41°16' E 174°47'0 0.0
2019-Jul-21 17:29S 41°16' E 174°47'0 0.0
2019-Jul-21 16:59S 41°16' E 174°47'0 0.0
2019-Jul-21 16:29S 41°16' E 174°47'0 0.6
2019-Jul-21 16:00S 41°16' E 174°47'611.1
2019-Jul-21 15:31S 41°21' E 174°51'714.2
2019-Jul-21 15:00S 41°23' E 174°41'816.3
2019-Jul-21 14:30S 41°17' E 174°34'917.4
2019-Jul-21 14:01S 41°09' E 174°30'815.5
2019-Jul-21 13:30S 41°04' E 174°23'815.3
2019-Jul-21 13:00S 41°08' E 174°15'714.4
2019-Jul-21 12:31S 41°14' E 174°08'713.2
2019-Jul-21 12:00S 41°17' E 174°00'0 0.0
2019-Jul-21 11:30S 41°17' E 174°00'0 0.1
2019-Jul-21 11:01S 41°17' E 174°00'4 8.1
2019-Jul-21 10:31S 41°14' E 174°04'713.3
2019-Jul-21 10:01S 41°14' E 174°13'714.3
2019-Jul-21 09:31S 41°15' E 174°23'917.8
2019-Jul-21 09:01S 41°20' E 174°33'1019.0
2019-Jul-21 08:31S 41°23' E 174°45'714.3
2019-Jul-21 08:01S 41°17' E 174°51'3 5.6
2019-Jul-21 07:29S 41°16' E 174°47'0 0.0
2019-Jul-21 06:59S 41°16' E 174°47'0 0.0
2019-Jul-21 06:29S 41°16' E 174°47'0 0.0
2019-Jul-21 05:56S 41°16' E 174°47'0 0.0
2019-Jul-21 05:30S 41°16' E 174°47'4 8.0
2019-Jul-21 05:01S 41°19' E 174°51'713.5
2019-Jul-21 04:30S 41°24' E 174°45'917.6
2019-Jul-21 04:00S 41°21' E 174°34'816.6
2019-Jul-21 03:30S 41°17' E 174°25'713.9
2019-Jul-21 03:00S 41°14' E 174°16'713.7
2019-Jul-21 02:31S 41°14' E 174°07'612.1
2019-Jul-21 02:00S 41°17' E 174°00'0 0.0
2019-Jul-21 01:28S 41°17' E 174°00'0 0.0
2019-Jul-21 00:58S 41°17' E 174°00'0 0.0
2019-Jul-21 00:28S 41°17' E 174°00'1 2.0
2019-Jul-21 00:00S 41°16' E 174°01'713.6
2019-Jul-20 23:31S 41°14' E 174°09'713.1
2019-Jul-20 23:01S 41°13' E 174°18'816.0
2019-Jul-20 22:31S 41°17' E 174°27'918.2
2019-Jul-20 22:01S 41°22' E 174°37'815.3
2019-Jul-20 21:30S 41°22' E 174°47'611.9
2019-Jul-20 21:00S 41°17' E 174°50'2 3.6
2019-Jul-20 20:29S 41°16' E 174°47'0 0.0
2019-Jul-20 19:56S 41°16' E 174°47'0 0.0
2019-Jul-20 19:29S 41°16' E 174°47'0 0.0
2019-Jul-20 18:59S 41°16' E 174°47'0 0.0
2019-Jul-20 18:29S 41°16' E 174°47'0 0.0
2019-Jul-20 17:59S 41°16' E 174°47'0 0.0
2019-Jul-20 17:29S 41°16' E 174°47'0 0.0
2019-Jul-20 16:59S 41°16' E 174°47'0 0.0
2019-Jul-20 16:29S 41°16' E 174°47'0 0.0
2019-Jul-20 15:59S 41°16' E 174°47'0 0.0
2019-Jul-20 15:29S 41°16' E 174°47'0 0.0
2019-Jul-20 14:59S 41°16' E 174°47'0 0.0
2019-Jul-20 14:29S 41°16' E 174°47'0 0.0
2019-Jul-20 13:59S 41°16' E 174°47'0 0.0
2019-Jul-20 13:29S 41°16' E 174°47'0 0.0
2019-Jul-20 12:59S 41°16' E 174°47'0 0.0
2019-Jul-20 12:29S 41°16' E 174°47'0 0.0
2019-Jul-20 11:59S 41°16' E 174°47'0 0.0
2019-Jul-20 11:29S 41°16' E 174°47'0 0.0
2019-Jul-20 10:59S 41°16' E 174°47'0 0.0
2019-Jul-20 10:29S 41°16' E 174°47'0 0.0
2019-Jul-20 09:59S 41°16' E 174°47'0 0.0
2019-Jul-20 09:29S 41°16' E 174°47'0 0.0
2019-Jul-20 08:59S 41°16' E 174°47'0 0.0
2019-Jul-20 08:29S 41°16' E 174°47'0 0.0
2019-Jul-20 07:59S 41°16' E 174°47'0 0.0
2019-Jul-20 07:29S 41°16' E 174°47'0 0.0
2019-Jul-20 06:59S 41°16' E 174°47'0 0.0
2019-Jul-20 06:14S 41°16' E 174°47'0 0.0
2019-Jul-20 05:56S 41°16' E 174°47'0 0.0
2019-Jul-20 05:30S 41°16' E 174°47'3 5.7
2019-Jul-20 05:00S 41°17' E 174°51'714.9
2019-Jul-20 04:30S 41°23' E 174°47'918.3
2019-Jul-20 04:00S 41°21' E 174°35'918.1
2019-Jul-20 03:30S 41°16' E 174°25'714.7
2019-Jul-20 03:00S 41°14' E 174°16'714.1
2019-Jul-20 02:30S 41°14' E 174°07'611.4
2019-Jul-20 02:01S 41°17' E 174°00'0 0.0
2019-Jul-20 01:28S 41°17' E 174°00'0 0.0
2019-Jul-20 00:58S 41°17' E 174°00'0 0.0
2019-Jul-20 00:28S 41°17' E 174°00'2 3.5
2019-Jul-20 00:01S 41°16' E 174°01'612.4
2019-Jul-19 23:30S 41°15' E 174°09'713.8
2019-Jul-19 23:01S 41°13' E 174°18'918.6
2019-Jul-19 22:30S 41°18' E 174°29'918.0
2019-Jul-19 22:01S 41°22' E 174°39'714.4
2019-Jul-19 21:31S 41°22' E 174°49'612.2
2019-Jul-19 21:01S 41°16' E 174°48'0 0.9
2019-Jul-19 20:28S 41°16' E 174°47'0 0.0
2019-Jul-19 19:58S 41°16' E 174°47'0 0.0
2019-Jul-19 19:28S 41°16' E 174°47'0 0.0
2019-Jul-19 18:58S 41°16' E 174°47'0 0.0
2019-Jul-19 18:28S 41°16' E 174°47'0 0.0
2019-Jul-19 17:58S 41°16' E 174°47'0 0.0
2019-Jul-19 17:28S 41°16' E 174°47'0 0.0
2019-Jul-19 16:58S 41°16' E 174°47'0 0.3
2019-Jul-19 16:30S 41°16' E 174°47'510.0
2019-Jul-19 16:00S 41°20' E 174°51'816.3
2019-Jul-19 15:30S 41°23' E 174°41'1121.1
2019-Jul-19 15:00S 41°18' E 174°29'918.4
2019-Jul-19 14:31S 41°13' E 174°19'714.5
2019-Jul-19 14:01S 41°14' E 174°09'713.4
2019-Jul-19 13:31S 41°16' E 174°01'1 1.4
2019-Jul-19 13:00S 41°17' E 174°00'0 0.0
2019-Jul-19 12:30S 41°17' E 174°00'0 0.0
2019-Jul-19 12:00S 41°17' E 174°00'0 0.0
2019-Jul-19 11:30S 41°17' E 174°00'0 0.1
2019-Jul-19 11:00S 41°17' E 174°00'5 9.1
2019-Jul-19 10:30S 41°14' E 174°05'612.6
2019-Jul-19 10:00S 41°14' E 174°14'714.6
2019-Jul-19 09:30S 41°15' E 174°23'1020.2
2019-Jul-19 09:00S 41°20' E 174°35'1020.7
2019-Jul-19 08:30S 41°22' E 174°48'612.6
2019-Jul-19 08:01S 41°16' E 174°47'0 0.3
2019-Jul-19 07:30S 41°16' E 174°47'0 0.0
2019-Jul-19 07:00S 41°16' E 174°47'0 0.0
2019-Jul-19 06:30S 41°16' E 174°47'0 0.0
2019-Jul-19 06:00S 41°16' E 174°47'0 0.0
2019-Jul-19 05:30S 41°16' E 174°47'4 8.1
2019-Jul-19 05:01S 41°19' E 174°51'816.0
2019-Jul-19 04:31S 41°23' E 174°43'1020.5
2019-Jul-19 04:01S 41°19' E 174°31'1019.4
2019-Jul-19 03:31S 41°13' E 174°20'815.1
2019-Jul-19 03:01S 41°15' E 174°10'613.0
2019-Jul-19 02:31S 41°15' E 174°02'2 3.7
2019-Jul-19 02:01S 41°17' E 174°00'0 0.0
2019-Jul-19 01:31S 41°17' E 174°00'0 0.0
2019-Jul-19 01:01S 41°17' E 174°00'0 0.0
2019-Jul-19 00:31S 41°17' E 174°00'0 0.2
2019-Jul-19 00:01S 41°17' E 174°00'5 9.3
2019-Jul-18 23:30S 41°14' E 174°05'612.1
2019-Jul-18 23:01S 41°14' E 174°13'713.1
2019-Jul-18 22:31S 41°14' E 174°22'1121.1
2019-Jul-18 22:01S 41°20' E 174°34'1121.3
2019-Jul-18 21:30S 41°22' E 174°48'612.5
2019-Jul-18 21:00S 41°16' E 174°47'0 0.3
2019-Jul-18 20:29S 41°16' E 174°47'0 0.0
2019-Jul-18 19:59S 41°16' E 174°47'0 0.0
2019-Jul-18 19:29S 41°16' E 174°47'0 0.0
2019-Jul-18 18:59S 41°16' E 174°47'0 0.0
2019-Jul-18 18:29S 41°16' E 174°47'0 0.0
2019-Jul-18 17:59S 41°16' E 174°47'0 0.0
2019-Jul-18 17:29S 41°16' E 174°47'0 0.0
2019-Jul-18 17:00S 41°16' E 174°47'0 0.8
2019-Jul-18 16:30S 41°16' E 174°47'611.5
2019-Jul-18 16:01S 41°22' E 174°50'917.5
2019-Jul-18 15:31S 41°23' E 174°39'1121.5
2019-Jul-18 15:00S 41°17' E 174°27'917.3
2019-Jul-18 14:31S 41°14' E 174°17'713.4
2019-Jul-18 14:01S 41°14' E 174°08'612.4
2019-Jul-18 13:30S 41°17' E 174°00'0 0.0
2019-Jul-18 13:00S 41°17' E 174°00'0 0.0
2019-Jul-18 12:30S 41°17' E 174°00'0 0.0
2019-Jul-18 12:00S 41°17' E 174°00'0 0.0
2019-Jul-18 11:30S 41°17' E 174°00'1 1.1
2019-Jul-18 11:00S 41°17' E 174°01'713.4
2019-Jul-18 10:30S 41°14' E 174°09'612.2
2019-Jul-18 10:00S 41°13' E 174°17'917.3
2019-Jul-18 09:30S 41°17' E 174°27'1122.4
2019-Jul-18 09:01S 41°22' E 174°40'918.0
2019-Jul-18 08:30S 41°19' E 174°51'4 7.1
2019-Jul-18 07:56S 41°16' E 174°47'0 0.0
2019-Jul-18 07:26S 41°16' E 174°47'0 0.0
2019-Jul-18 06:44S 41°16' E 174°47'0 0.0
2019-Jul-18 06:29S 41°16' E 174°47'0 0.0
2019-Jul-18 05:56S 41°16' E 174°47'0 0.3
2019-Jul-18 05:30S 41°16' E 174°47'611.8
2019-Jul-18 05:01S 41°21' E 174°51'918.6
2019-Jul-18 04:31S 41°23' E 174°38'1223.0
2019-Jul-18 04:00S 41°16' E 174°25'715.0
2019-Jul-18 03:30S 41°14' E 174°16'713.1
2019-Jul-18 03:00S 41°14' E 174°07'612.0
2019-Jul-18 02:30S 41°17' E 174°00'0 0.0
2019-Jul-18 01:58S 41°17' E 174°00'0 0.0
2019-Jul-18 01:28S 41°17' E 174°00'0 0.0
2019-Jul-18 00:58S 41°17' E 174°00'0 0.0
2019-Jul-18 00:30S 41°17' E 174°00'3 6.3
2019-Jul-18 00:00S 41°15' E 174°03'612.1
2019-Jul-17 23:30S 41°15' E 174°11'612.5
2019-Jul-17 23:00S 41°13' E 174°19'918.3
2019-Jul-17 22:30S 41°18' E 174°29'918.7
2019-Jul-17 22:00S 41°22' E 174°40'816.9
2019-Jul-17 21:30S 41°20' E 174°51'510.5
2019-Jul-17 21:01S 41°16' E 174°47'0 0.0
2019-Jul-17 20:31S 41°16' E 174°47'0 0.0
2019-Jul-17 20:01S 41°16' E 174°47'0 0.0
2019-Jul-17 19:31S 41°16' E 174°47'0 0.0
2019-Jul-17 19:00S 41°16' E 174°47'0 0.0
2019-Jul-17 18:30S 41°16' E 174°47'0 0.0
2019-Jul-17 18:00S 41°16' E 174°47'0 0.0
2019-Jul-17 17:30S 41°16' E 174°47'0 0.0
2019-Jul-17 17:00S 41°16' E 174°47'0 0.9
2019-Jul-17 16:30S 41°16' E 174°48'713.1
2019-Jul-17 16:00S 41°23' E 174°50'917.8
2019-Jul-17 15:31S 41°23' E 174°38'1019.7
2019-Jul-17 15:00S 41°17' E 174°27'816.9
2019-Jul-17 14:30S 41°13' E 174°17'713.3
2019-Jul-17 14:01S 41°14' E 174°09'713.6
2019-Jul-17 13:30S 41°17' E 174°01'0 0.3
2019-Jul-17 12:58S 41°17' E 174°00'0 0.0
2019-Jul-17 12:28S 41°17' E 174°00'0 0.0
2019-Jul-17 11:58S 41°17' E 174°00'0 0.0
2019-Jul-17 11:30S 41°17' E 174°00'2 3.1
2019-Jul-17 11:01S 41°16' E 174°01'612.5
2019-Jul-17 10:31S 41°15' E 174°09'613.0
2019-Jul-17 10:00S 41°13' E 174°18'918.2
2019-Jul-17 09:30S 41°17' E 174°28'1020.6
2019-Jul-17 09:00S 41°22' E 174°40'917.3
2019-Jul-17 08:30S 41°20' E 174°51'5 9.2
2019-Jul-17 08:00S 41°16' E 174°47'0 0.0
2019-Jul-17 07:30S 41°16' E 174°47'0 0.0
2019-Jul-17 07:00S 41°16' E 174°47'0 0.0
2019-Jul-17 06:30S 41°16' E 174°47'0 0.0
2019-Jul-17 06:00S 41°16' E 174°47'0 0.0
2019-Jul-17 05:30S 41°16' E 174°47'2 4.0
2019-Jul-17 05:00S 41°16' E 174°50'815.5
2019-Jul-17 04:30S 41°23' E 174°46'1020.9
2019-Jul-17 04:01S 41°20' E 174°33'1122.2
2019-Jul-17 03:31S 41°14' E 174°21'714.6
2019-Jul-17 03:01S 41°15' E 174°11'713.3
2019-Jul-17 02:31S 41°15' E 174°02'3 4.8
2019-Jul-17 01:58S 41°17' E 174°00'0 0.0
2019-Jul-17 01:28S 41°17' E 174°00'0 0.0
2019-Jul-17 00:58S 41°17' E 174°00'0 0.0
2019-Jul-17 00:28S 41°17' E 174°00'0 0.1
2019-Jul-17 00:00S 41°17' E 174°00'510.1
2019-Jul-16 23:31S 41°14' E 174°06'612.0
2019-Jul-16 23:00S 41°14' E 174°14'612.7
2019-Jul-16 22:30S 41°14' E 174°22'918.9
2019-Jul-16 22:00S 41°20' E 174°33'918.5
2019-Jul-16 21:30S 41°23' E 174°44'715.0
2019-Jul-16 21:00S 41°17' E 174°50'2 4.4
2019-Jul-16 20:28S 41°16' E 174°47'0 0.0
2019-Jul-16 19:58S 41°16' E 174°47'0 0.0
2019-Jul-16 19:28S 41°16' E 174°47'0 0.0
2019-Jul-16 18:58S 41°16' E 174°47'0 0.0
2019-Jul-16 18:28S 41°16' E 174°47'0 0.0
2019-Jul-16 17:58S 41°16' E 174°47'0 0.0
2019-Jul-16 17:28S 41°16' E 174°47'0 0.4
2019-Jul-16 17:00S 41°16' E 174°47'612.7
2019-Jul-16 16:30S 41°22' E 174°50'816.9
2019-Jul-16 16:00S 41°23' E 174°39'1020.2
2019-Jul-16 15:30S 41°18' E 174°27'612.5
2019-Jul-16 15:01S 41°14' E 174°20'611.5
2019-Jul-16 14:30S 41°14' E 174°13'713.1
2019-Jul-16 14:00S 41°15' E 174°04'4 7.0
2019-Jul-16 13:29S 41°17' E 174°00'0 0.0
2019-Jul-16 12:59S 41°17' E 174°00'0 0.0
2019-Jul-16 12:29S 41°17' E 174°00'0 0.0
2019-Jul-16 11:59S 41°17' E 174°00'0 0.0
2019-Jul-16 11:30S 41°17' E 174°00'4 8.4
2019-Jul-16 11:01S 41°14' E 174°05'611.8
2019-Jul-16 10:30S 41°14' E 174°12'612.4
2019-Jul-16 10:01S 41°14' E 174°21'1020.7
2019-Jul-16 09:30S 41°19' E 174°32'1020.4
2019-Jul-16 09:01S 41°23' E 174°45'713.9
2019-Jul-16 08:31S 41°16' E 174°49'1 2.2
2019-Jul-16 08:00S 41°16' E 174°47'0 0.0
2019-Jul-16 07:30S 41°16' E 174°47'0 0.0
2019-Jul-16 07:00S 41°16' E 174°47'0 0.0
2019-Jul-16 06:30S 41°16' E 174°47'0 0.0
2019-Jul-16 06:00S 41°16' E 174°47'1 2.7
2019-Jul-16 05:30S 41°16' E 174°49'714.4
2019-Jul-16 05:00S 41°23' E 174°48'917.8
2019-Jul-16 04:31S 41°22' E 174°37'1020.1
2019-Jul-16 04:00S 41°17' E 174°25'815.2
2019-Jul-16 03:31S 41°14' E 174°16'612.3
2019-Jul-16 03:01S 41°14' E 174°08'612.6
2019-Jul-16 02:30S 41°17' E 174°00'0 0.0
2019-Jul-16 01:59S 41°17' E 174°00'0 0.0
2019-Jul-16 01:29S 41°17' E 174°00'0 0.0
2019-Jul-16 00:59S 41°17' E 174°00'0 0.0
2019-Jul-16 00:29S 41°17' E 174°00'3 5.5
2019-Jul-16 00:00S 41°15' E 174°02'612.1
2019-Jul-15 23:31S 41°15' E 174°10'612.6
2019-Jul-15 23:01S 41°13' E 174°18'714.4
2019-Jul-15 22:31S 41°17' E 174°26'917.0
2019-Jul-15 22:00S 41°21' E 174°36'917.2
2019-Jul-15 21:31S 41°22' E 174°47'612.8
2019-Jul-15 21:01S 41°16' E 174°48'0 0.7
2019-Jul-15 20:30S 41°16' E 174°47'0 0.0
2019-Jul-15 20:00S 41°16' E 174°47'0 0.0
2019-Jul-15 19:30S 41°16' E 174°47'0 0.0
2019-Jul-15 19:00S 41°16' E 174°47'0 0.0
2019-Jul-15 18:30S 41°16' E 174°47'0 0.1
2019-Jul-15 18:00S 41°16' E 174°47'510.4
2019-Jul-15 17:30S 41°20' E 174°51'713.6
2019-Jul-15 17:00S 41°23' E 174°43'714.3
2019-Jul-15 16:30S 41°21' E 174°34'815.8
2019-Jul-15 16:01S 41°17' E 174°25'713.5
2019-Jul-15 15:30S 41°13' E 174°17'612.2
2019-Jul-15 15:01S 41°14' E 174°09'713.6
2019-Jul-15 14:30S 41°17' E 174°01'1 1.1
2019-Jul-15 14:00S 41°17' E 174°00'0 0.0
2019-Jul-15 13:30S 41°17' E 174°00'0 0.0
2019-Jul-15 13:00S 41°17' E 174°00'0 0.0
2019-Jul-15 12:30S 41°17' E 174°00'2 3.2
2019-Jul-15 12:00S 41°16' E 174°01'0 0.9
2019-Jul-15 11:30S 41°16' E 174°01'612.8
2019-Jul-15 11:00S 41°14' E 174°09'611.5
2019-Jul-15 10:30S 41°13' E 174°17'612.7
2019-Jul-15 10:00S 41°16' E 174°25'714.4
2019-Jul-15 09:31S 41°20' E 174°33'815.3
2019-Jul-15 09:01S 41°23' E 174°42'815.6
2019-Jul-15 08:30S 41°19' E 174°51'4 8.5
2019-Jul-15 08:00S 41°16' E 174°47'0 0.0
2019-Jul-15 07:24S 41°16' E 174°47'0 0.0
2019-Jul-15 07:00S 41°16' E 174°47'0 0.0
2019-Jul-15 06:30S 41°16' E 174°47'0 0.0
2019-Jul-15 06:00S 41°16' E 174°47'0 0.0
2019-Jul-15 05:30S 41°16' E 174°47'4 8.2
2019-Jul-15 05:00S 41°19' E 174°51'713.9
2019-Jul-15 04:30S 41°23' E 174°45'714.9
2019-Jul-15 04:01S 41°21' E 174°35'1019.4
2019-Jul-15 03:31S 41°17' E 174°24'613.0
2019-Jul-15 03:01S 41°14' E 174°16'612.1
2019-Jul-15 02:30S 41°14' E 174°08'612.9
2019-Jul-15 02:00S 41°17' E 174°00'0 0.0
2019-Jul-15 01:28S 41°17' E 174°00'0 0.0
2019-Jul-15 00:58S 41°17' E 174°00'0 0.0
2019-Jul-15 00:29S 41°17' E 174°00'2 5.2
2019-Jul-15 00:00S 41°15' E 174°02'612.8
2019-Jul-14 23:30S 41°15' E 174°11'713.3
2019-Jul-14 23:01S 41°13' E 174°19'816.0
2019-Jul-14 22:30S 41°17' E 174°28'815.0
2019-Jul-14 22:00S 41°21' E 174°36'714.3
2019-Jul-14 21:30S 41°23' E 174°45'713.5
2019-Jul-14 21:01S 41°17' E 174°50'2 4.7
2019-Jul-14 20:30S 41°16' E 174°47'0 0.0
2019-Jul-14 20:00S 41°16' E 174°47'0 0.0
2019-Jul-14 19:30S 41°16' E 174°47'0 0.0
2019-Jul-14 19:00S 41°16' E 174°47'0 0.0
2019-Jul-14 18:30S 41°16' E 174°47'0 0.0
2019-Jul-14 18:00S 41°16' E 174°47'0 0.0
2019-Jul-14 17:30S 41°16' E 174°47'0 0.0
2019-Jul-14 17:00S 41°16' E 174°47'0 0.0
2019-Jul-14 16:30S 41°16' E 174°47'0 0.0
2019-Jul-14 16:00S 41°16' E 174°47'4 8.1
2019-Jul-14 15:30S 41°19' E 174°51'713.1
2019-Jul-14 15:00S 41°23' E 174°45'714.5
2019-Jul-14 14:31S 41°22' E 174°36'816.0
2019-Jul-14 14:01S 41°17' E 174°27'815.3
2019-Jul-14 13:30S 41°13' E 174°19'714.5
2019-Jul-14 13:01S 41°15' E 174°10'612.5
2019-Jul-14 12:30S 41°16' E 174°02'2 3.1
2019-Jul-14 11:59S 41°17' E 174°00'0 0.0
2019-Jul-14 11:29S 41°17' E 174°00'2 4.0
2019-Jul-14 11:00S 41°15' E 174°02'611.9
2019-Jul-14 10:31S 41°15' E 174°10'612.5
2019-Jul-14 10:00S 41°13' E 174°18'714.5
2019-Jul-14 09:30S 41°16' E 174°26'815.2
2019-Jul-14 09:01S 41°20' E 174°35'917.2
2019-Jul-14 08:31S 41°23' E 174°46'713.5
2019-Jul-14 08:01S 41°16' E 174°49'2 3.3
2019-Jul-14 07:30S 41°16' E 174°47'0 0.0
2019-Jul-14 07:01S 41°16' E 174°47'1 2.3
2019-Jul-14 06:31S 41°16' E 174°49'3 5.0
2019-Jul-14 06:00S 41°16' E 174°52'2 3.8
2019-Jul-14 05:31S 41°15' E 174°50'2 3.9
2019-Jul-14 05:00S 41°16' E 174°47'0 0.0
2019-Jul-14 04:31S 41°16' E 174°47'0 0.0
2019-Jul-14 04:01S 41°16' E 174°47'0 0.0
2019-Jul-14 03:31S 41°16' E 174°47'0 0.0
2019-Jul-14 03:00S 41°16' E 174°47'0 0.0
2019-Jul-14 02:31S 41°16' E 174°47'0 0.0
2019-Jul-14 02:00S 41°16' E 174°47'0 0.0
2019-Jul-14 01:30S 41°16' E 174°47'0 0.0
2019-Jul-14 01:01S 41°16' E 174°47'0 0.0
2019-Jul-14 00:30S 41°16' E 174°47'0 0.0
2019-Jul-14 00:01S 41°16' E 174°47'0 0.0
2019-Jul-13 23:31S 41°16' E 174°47'0 0.0
2019-Jul-13 23:00S 41°16' E 174°47'0 0.0
2019-Jul-13 22:31S 41°16' E 174°47'0 0.0
2019-Jul-13 22:01S 41°16' E 174°47'0 0.0
2019-Jul-13 21:30S 41°16' E 174°47'1 1.1
2019-Jul-13 21:01S 41°16' E 174°48'2 3.2
2019-Jul-13 20:31S 41°16' E 174°50'1 1.5
2019-Jul-13 20:00S 41°15' E 174°50'1 1.1
2019-Jul-13 19:31S 41°15' E 174°50'0 0.5
2019-Jul-13 19:01S 41°15' E 174°49'1 1.7
2019-Jul-13 18:31S 41°16' E 174°50'1 1.8
2019-Jul-13 18:01S 41°15' E 174°49'1 2.7
2019-Jul-13 17:31S 41°16' E 174°48'0 0.8
2019-Jul-13 16:58S 41°16' E 174°47'0 0.0
2019-Jul-13 16:28S 41°16' E 174°47'0 0.0
2019-Jul-13 15:58S 41°16' E 174°47'0 0.0
2019-Jul-13 15:28S 41°16' E 174°47'0 0.0
2019-Jul-13 14:58S 41°16' E 174°47'0 0.0
2019-Jul-13 14:29S 41°16' E 174°47'0 0.0
2019-Jul-13 14:00S 41°16' E 174°47'0 0.0
2019-Jul-13 13:30S 41°16' E 174°47'3 5.2
2019-Jul-13 13:00S 41°16' E 174°51'714.7
2019-Jul-13 12:30S 41°24' E 174°48'917.8
2019-Jul-13 12:01S 41°22' E 174°36'918.2
2019-Jul-13 11:31S 41°17' E 174°26'815.7
2019-Jul-13 11:00S 41°13' E 174°17'713.3
2019-Jul-13 10:30S 41°14' E 174°08'713.5
2019-Jul-13 10:00S 41°17' E 174°00'0 0.0
2019-Jul-13 09:30S 41°17' E 174°00'0 0.0
2019-Jul-13 09:00S 41°17' E 174°00'0 0.0
2019-Jul-13 08:30S 41°17' E 174°00'1 2.2
2019-Jul-13 08:00S 41°16' E 174°01'713.1
2019-Jul-13 07:30S 41°14' E 174°09'612.3
2019-Jul-13 07:00S 41°13' E 174°17'815.7
2019-Jul-13 06:30S 41°17' E 174°27'917.5
2019-Jul-13 06:00S 41°21' E 174°36'917.8
2019-Jul-13 05:30S 41°22' E 174°48'612.5
2019-Jul-13 05:00S 41°16' E 174°48'1 1.2
2019-Jul-13 04:30S 41°16' E 174°47'0 0.0
2019-Jul-13 04:00S 41°16' E 174°47'0 0.0
2019-Jul-13 03:30S 41°16' E 174°47'0 0.0
2019-Jul-13 03:00S 41°16' E 174°47'0 0.0
2019-Jul-13 02:30S 41°16' E 174°47'0 0.0
2019-Jul-13 01:57S 41°16' E 174°47'0 0.0
2019-Jul-13 01:27S 41°16' E 174°47'0 0.0
2019-Jul-13 01:00S 41°16' E 174°47'0 0.0
2019-Jul-13 00:30S 41°16' E 174°47'0 0.0
2019-Jul-13 00:00S 41°16' E 174°47'510.0
2019-Jul-12 23:30S 41°20' E 174°51'714.7
2019-Jul-12 23:00S 41°23' E 174°42'1019.6
2019-Jul-12 22:30S 41°19' E 174°30'918.9
2019-Jul-12 22:00S 41°14' E 174°20'815.0
2019-Jul-12 21:30S 41°15' E 174°10'713.1
2019-Jul-12 21:00S 41°15' E 174°02'2 3.6
2019-Jul-12 20:28S 41°17' E 174°00'0 0.0
2019-Jul-12 19:58S 41°17' E 174°00'0 0.0
2019-Jul-12 19:28S 41°17' E 174°00'0 0.0
2019-Jul-12 18:59S 41°17' E 174°00'2 3.8
2019-Jul-12 18:30S 41°15' E 174°02'612.4
2019-Jul-12 18:01S 41°15' E 174°10'714.6
2019-Jul-12 17:31S 41°13' E 174°19'714.7
2019-Jul-12 17:00S 41°17' E 174°27'714.2
2019-Jul-12 16:30S 41°21' E 174°35'815.0
2019-Jul-12 16:00S 41°23' E 174°45'612.7
2019-Jul-12 15:30S 41°19' E 174°51'4 8.0
2019-Jul-12 15:00S 41°16' E 174°47'0 0.0
2019-Jul-12 14:28S 41°16' E 174°47'0 0.0
2019-Jul-12 13:58S 41°16' E 174°47'0 0.0
2019-Jul-12 13:28S 41°16' E 174°47'1 2.2
2019-Jul-12 13:00S 41°16' E 174°48'611.7
2019-Jul-12 12:30S 41°22' E 174°50'713.9
2019-Jul-12 12:00S 41°23' E 174°41'816.7
2019-Jul-12 11:30S 41°19' E 174°31'816.2
2019-Jul-12 11:00S 41°15' E 174°22'612.5
2019-Jul-12 10:30S 41°14' E 174°14'713.5
2019-Jul-12 10:00S 41°14' E 174°05'4 8.1
2019-Jul-12 09:30S 41°17' E 174°00'0 0.0
2019-Jul-12 09:00S 41°17' E 174°00'0 0.0
2019-Jul-12 08:30S 41°17' E 174°00'1 2.6
2019-Jul-12 08:00S 41°16' E 174°01'612.6
2019-Jul-12 07:30S 41°14' E 174°09'612.3
2019-Jul-12 07:00S 41°13' E 174°17'714.2
2019-Jul-12 06:30S 41°16' E 174°26'  
Track history (hours):
 
Tides and Currents Weather Stations Pressure Air Temp Water Temp Dewpoint Dewpoint Depression Visibility Wind Speed Wind Dir Waves Ship Positions

Dawn Merchant

Operator: Norfolk Line

Last reported at 2019-Jul-22 06:29 UTC. Time now 2019-Jul-22 06:49 UTC.
Position S 41°16' E 174°47'.

Length 180 m; draft 5.8 m.

Type: Passenger vessel. MMSI: 232197000.

Date/timePositionNaut miles runAvg speedWind from/ knotsBaromVisibWave heightAir tempDewpointWater temp
2019-Jul-22 06:29S 41°16' E 174°47'0 0.0
2019-Jul-22 05:59S 41°16' E 174°47'0 0.0
2019-Jul-22 05:30S 41°16' E 174°47'3 5.3
2019-Jul-22 05:00S 41°16' E 174°51'714.8
2019-Jul-22 04:30S 41°24' E 174°48'918.2
2019-Jul-22 04:01S 41°22' E 174°36'918.3
2019-Jul-22 03:30S 41°17' E 174°26'815.2
2019-Jul-22 03:00S 41°14' E 174°17'714.1
2019-Jul-22 02:30S 41°14' E 174°07'612.1
2019-Jul-22 02:00S 41°17' E 174°00'0 0.0
2019-Jul-22 01:30S 41°17' E 174°00'0 0.0
2019-Jul-22 01:00S 41°17' E 174°00'0 0.0
2019-Jul-22 00:30S 41°17' E 174°00'0 0.3
2019-Jul-22 00:00S 41°17' E 174°01'510.3
2019-Jul-21 23:30S 41°14' E 174°06'713.4
2019-Jul-21 23:01S 41°14' E 174°15'713.8
2019-Jul-21 22:30S 41°15' E 174°24'917.1
2019-Jul-21 22:00S 41°20' E 174°34'918.0
2019-Jul-21 21:30S 41°23' E 174°45'713.7
2019-Jul-21 21:00S 41°17' E 174°51'3 5.6
2019-Jul-21 20:29S 41°16' E 174°47'0 0.0
2019-Jul-21 19:50S 41°16' E 174°47'0 0.0
2019-Jul-21 19:29S 41°16' E 174°47'0 0.0
2019-Jul-21 18:59S 41°16' E 174°47'0 0.0
2019-Jul-21 18:29S 41°16' E 174°47'0 0.0
2019-Jul-21 17:59S 41°16' E 174°47'0 0.0
2019-Jul-21 17:29S 41°16' E 174°47'0 0.0
2019-Jul-21 16:59S 41°16' E 174°47'0 0.0
2019-Jul-21 16:29S 41°16' E 174°47'0 0.6
2019-Jul-21 16:00S 41°16' E 174°47'611.1
2019-Jul-21 15:31S 41°21' E 174°51'714.2
2019-Jul-21 15:00S 41°23' E 174°41'816.3
2019-Jul-21 14:30S 41°17' E 174°34'917.4
2019-Jul-21 14:01S 41°09' E 174°30'815.5
2019-Jul-21 13:30S 41°04' E 174°23'815.3
2019-Jul-21 13:00S 41°08' E 174°15'714.4
2019-Jul-21 12:31S 41°14' E 174°08'713.2
2019-Jul-21 12:00S 41°17' E 174°00'0 0.0
2019-Jul-21 11:30S 41°17' E 174°00'0 0.1
2019-Jul-21 11:01S 41°17' E 174°00'4 8.1
2019-Jul-21 10:31S 41°14' E 174°04'713.3
2019-Jul-21 10:01S 41°14' E 174°13'714.3
2019-Jul-21 09:31S 41°15' E 174°23'917.8
2019-Jul-21 09:01S 41°20' E 174°33'1019.0
2019-Jul-21 08:31S 41°23' E 174°45'714.3
2019-Jul-21 08:01S 41°17' E 174°51'3 5.6
2019-Jul-21 07:29S 41°16' E 174°47'0 0.0
2019-Jul-21 06:59S 41°16' E 174°47'0 0.0
2019-Jul-21 06:29S 41°16' E 174°47'0 0.0
2019-Jul-21 05:56S 41°16' E 174°47'0 0.0
2019-Jul-21 05:30S 41°16' E 174°47'4 8.0
2019-Jul-21 05:01S 41°19' E 174°51'713.5
2019-Jul-21 04:30S 41°24' E 174°45'917.6
2019-Jul-21 04:00S 41°21' E 174°34'816.6
2019-Jul-21 03:30S 41°17' E 174°25'713.9
2019-Jul-21 03:00S 41°14' E 174°16'713.7
2019-Jul-21 02:31S 41°14' E 174°07'612.1
2019-Jul-21 02:00S 41°17' E 174°00'0 0.0
2019-Jul-21 01:28S 41°17' E 174°00'0 0.0
2019-Jul-21 00:58S 41°17' E 174°00'0 0.0
2019-Jul-21 00:28S 41°17' E 174°00'1 2.0
2019-Jul-21 00:00S 41°16' E 174°01'713.6
2019-Jul-20 23:31S 41°14' E 174°09'713.1
2019-Jul-20 23:01S 41°13' E 174°18'816.0
2019-Jul-20 22:31S 41°17' E 174°27'918.2
2019-Jul-20 22:01S 41°22' E 174°37'815.3
2019-Jul-20 21:30S 41°22' E 174°47'611.9
2019-Jul-20 21:00S 41°17' E 174°50'2 3.6
2019-Jul-20 20:29S 41°16' E 174°47'0 0.0
2019-Jul-20 19:56S 41°16' E 174°47'0 0.0
2019-Jul-20 19:29S 41°16' E 174°47'0 0.0
2019-Jul-20 18:59S 41°16' E 174°47'0 0.0
2019-Jul-20 18:29S 41°16' E 174°47'0 0.0
2019-Jul-20 17:59S 41°16' E 174°47'0 0.0
2019-Jul-20 17:29S 41°16' E 174°47'0 0.0
2019-Jul-20 16:59S 41°16' E 174°47'0 0.0
2019-Jul-20 16:29S 41°16' E 174°47'0 0.0
2019-Jul-20 15:59S 41°16' E 174°47'0 0.0
2019-Jul-20 15:29S 41°16' E 174°47'0 0.0
2019-Jul-20 14:59S 41°16' E 174°47'0 0.0
2019-Jul-20 14:29S 41°16' E 174°47'0 0.0
2019-Jul-20 13:59S 41°16' E 174°47'0 0.0
2019-Jul-20 13:29S 41°16' E 174°47'0 0.0
2019-Jul-20 12:59S 41°16' E 174°47'0 0.0
2019-Jul-20 12:29S 41°16' E 174°47'0 0.0
2019-Jul-20 11:59S 41°16' E 174°47'0 0.0
2019-Jul-20 11:29S 41°16' E 174°47'0 0.0
2019-Jul-20 10:59S 41°16' E 174°47'0 0.0
2019-Jul-20 10:29S 41°16' E 174°47'0 0.0
2019-Jul-20 09:59S 41°16' E 174°47'0 0.0
2019-Jul-20 09:29S 41°16' E 174°47'0 0.0
2019-Jul-20 08:59S 41°16' E 174°47'0 0.0
2019-Jul-20 08:29S 41°16' E 174°47'0 0.0
2019-Jul-20 07:59S 41°16' E 174°47'0 0.0
2019-Jul-20 07:29S 41°16' E 174°47'0 0.0
2019-Jul-20 06:59S 41°16' E 174°47'0 0.0
2019-Jul-20 06:14S 41°16' E 174°47'0 0.0
2019-Jul-20 05:56S 41°16' E 174°47'0 0.0
2019-Jul-20 05:30S 41°16' E 174°47'3 5.7
2019-Jul-20 05:00S 41°17' E 174°51'714.9
2019-Jul-20 04:30S 41°23' E 174°47'918.3
2019-Jul-20 04:00S 41°21' E 174°35'918.1
2019-Jul-20 03:30S 41°16' E 174°25'714.7
2019-Jul-20 03:00S 41°14' E 174°16'714.1
2019-Jul-20 02:30S 41°14' E 174°07'611.4
2019-Jul-20 02:01S 41°17' E 174°00'0 0.0
2019-Jul-20 01:28S 41°17' E 174°00'0 0.0
2019-Jul-20 00:58S 41°17' E 174°00'0 0.0
2019-Jul-20 00:28S 41°17' E 174°00'2 3.5
2019-Jul-20 00:01S 41°16' E 174°01'612.4
2019-Jul-19 23:30S 41°15' E 174°09'713.8
2019-Jul-19 23:01S 41°13' E 174°18'918.6
2019-Jul-19 22:30S 41°18' E 174°29'918.0
2019-Jul-19 22:01S 41°22' E 174°39'714.4
2019-Jul-19 21:31S 41°22' E 174°49'612.2
2019-Jul-19 21:01S 41°16' E 174°48'0 0.9
2019-Jul-19 20:28S 41°16' E 174°47'0 0.0
2019-Jul-19 19:58S 41°16' E 174°47'0 0.0
2019-Jul-19 19:28S 41°16' E 174°47'0 0.0
2019-Jul-19 18:58S 41°16' E 174°47'0 0.0
2019-Jul-19 18:28S 41°16' E 174°47'0 0.0
2019-Jul-19 17:58S 41°16' E 174°47'0 0.0
2019-Jul-19 17:28S 41°16' E 174°47'0 0.0
2019-Jul-19 16:58S 41°16' E 174°47'0 0.3
2019-Jul-19 16:30S 41°16' E 174°47'510.0
2019-Jul-19 16:00S 41°20' E 174°51'816.3
2019-Jul-19 15:30S 41°23' E 174°41'1121.1
2019-Jul-19 15:00S 41°18' E 174°29'918.4
2019-Jul-19 14:31S 41°13' E 174°19'714.5
2019-Jul-19 14:01S 41°14' E 174°09'713.4
2019-Jul-19 13:31S 41°16' E 174°01'1 1.4
2019-Jul-19 13:00S 41°17' E 174°00'0 0.0
2019-Jul-19 12:30S 41°17' E 174°00'0 0.0
2019-Jul-19 12:00S 41°17' E 174°00'0 0.0
2019-Jul-19 11:30S 41°17' E 174°00'0 0.1
2019-Jul-19 11:00S 41°17' E 174°00'5 9.1
2019-Jul-19 10:30S 41°14' E 174°05'612.6
2019-Jul-19 10:00S 41°14' E 174°14'714.6
2019-Jul-19 09:30S 41°15' E 174°23'1020.2
2019-Jul-19 09:00S 41°20' E 174°35'1020.7
2019-Jul-19 08:30S 41°22' E 174°48'612.6
2019-Jul-19 08:01S 41°16' E 174°47'0 0.3
2019-Jul-19 07:30S 41°16' E 174°47'0 0.0
2019-Jul-19 07:00S 41°16' E 174°47'0 0.0
2019-Jul-19 06:30S 41°16' E 174°47'0 0.0
2019-Jul-19 06:00S 41°16' E 174°47'0 0.0
2019-Jul-19 05:30S 41°16' E 174°47'4 8.1
2019-Jul-19 05:01S 41°19' E 174°51'816.0
2019-Jul-19 04:31S 41°23' E 174°43'1020.5
2019-Jul-19 04:01S 41°19' E 174°31'1019.4
2019-Jul-19 03:31S 41°13' E 174°20'815.1
2019-Jul-19 03:01S 41°15' E 174°10'613.0
2019-Jul-19 02:31S 41°15' E 174°02'2 3.7
2019-Jul-19 02:01S 41°17' E 174°00'0 0.0
2019-Jul-19 01:31S 41°17' E 174°00'0 0.0
2019-Jul-19 01:01S 41°17' E 174°00'0 0.0
2019-Jul-19 00:31S 41°17' E 174°00'0 0.2
2019-Jul-19 00:01S 41°17' E 174°00'5 9.3
2019-Jul-18 23:30S 41°14' E 174°05'612.1
2019-Jul-18 23:01S 41°14' E 174°13'713.1
2019-Jul-18 22:31S 41°14' E 174°22'1121.1
2019-Jul-18 22:01S 41°20' E 174°34'1121.3
2019-Jul-18 21:30S 41°22' E 174°48'612.5
2019-Jul-18 21:00S 41°16' E 174°47'0 0.3
2019-Jul-18 20:29S 41°16' E 174°47'0 0.0
2019-Jul-18 19:59S 41°16' E 174°47'0 0.0
2019-Jul-18 19:29S 41°16' E 174°47'0 0.0
2019-Jul-18 18:59S 41°16' E 174°47'0 0.0
2019-Jul-18 18:29S 41°16' E 174°47'0 0.0
2019-Jul-18 17:59S 41°16' E 174°47'0 0.0
2019-Jul-18 17:29S 41°16' E 174°47'0 0.0
2019-Jul-18 17:00S 41°16' E 174°47'0 0.8
2019-Jul-18 16:30S 41°16' E 174°47'611.5
2019-Jul-18 16:01S 41°22' E 174°50'917.5
2019-Jul-18 15:31S 41°23' E 174°39'1121.5
2019-Jul-18 15:00S 41°17' E 174°27'917.3
2019-Jul-18 14:31S 41°14' E 174°17'713.4
2019-Jul-18 14:01S 41°14' E 174°08'612.4
2019-Jul-18 13:30S 41°17' E 174°00'0 0.0
2019-Jul-18 13:00S 41°17' E 174°00'0 0.0
2019-Jul-18 12:30S 41°17' E 174°00'0 0.0
2019-Jul-18 12:00S 41°17' E 174°00'0 0.0
2019-Jul-18 11:30S 41°17' E 174°00'1 1.1
2019-Jul-18 11:00S 41°17' E 174°01'713.4
2019-Jul-18 10:30S 41°14' E 174°09'612.2
2019-Jul-18 10:00S 41°13' E 174°17'917.3
2019-Jul-18 09:30S 41°17' E 174°27'1122.4
2019-Jul-18 09:01S 41°22' E 174°40'918.0
2019-Jul-18 08:30S 41°19' E 174°51'4 7.1
2019-Jul-18 07:56S 41°16' E 174°47'0 0.0
2019-Jul-18 07:26S 41°16' E 174°47'0 0.0
2019-Jul-18 06:44S 41°16' E 174°47'0 0.0
2019-Jul-18 06:29S 41°16' E 174°47'0 0.0
2019-Jul-18 05:56S 41°16' E 174°47'0 0.3
2019-Jul-18 05:30S 41°16' E 174°47'611.8
2019-Jul-18 05:01S 41°21' E 174°51'918.6
2019-Jul-18 04:31S 41°23' E 174°38'1223.0
2019-Jul-18 04:00S 41°16' E 174°25'715.0
2019-Jul-18 03:30S 41°14' E 174°16'713.1
2019-Jul-18 03:00S 41°14' E 174°07'612.0
2019-Jul-18 02:30S 41°17' E 174°00'0 0.0
2019-Jul-18 01:58S 41°17' E 174°00'0 0.0
2019-Jul-18 01:28S 41°17' E 174°00'0 0.0
2019-Jul-18 00:58S 41°17' E 174°00'0 0.0
2019-Jul-18 00:30S 41°17' E 174°00'3 6.3
2019-Jul-18 00:00S 41°15' E 174°03'612.1
2019-Jul-17 23:30S 41°15' E 174°11'612.5
2019-Jul-17 23:00S 41°13' E 174°19'918.3
2019-Jul-17 22:30S 41°18' E 174°29'918.7
2019-Jul-17 22:00S 41°22' E 174°40'816.9
2019-Jul-17 21:30S 41°20' E 174°51'510.5
2019-Jul-17 21:01S 41°16' E 174°47'0 0.0
2019-Jul-17 20:31S 41°16' E 174°47'0 0.0
2019-Jul-17 20:01S 41°16' E 174°47'0 0.0
2019-Jul-17 19:31S 41°16' E 174°47'0 0.0
2019-Jul-17 19:00S 41°16' E 174°47'0 0.0
2019-Jul-17 18:30S 41°16' E 174°47'0 0.0
2019-Jul-17 18:00S 41°16' E 174°47'0 0.0
2019-Jul-17 17:30S 41°16' E 174°47'0 0.0
2019-Jul-17 17:00S 41°16' E 174°47'0 0.9
2019-Jul-17 16:30S 41°16' E 174°48'713.1
2019-Jul-17 16:00S 41°23' E 174°50'917.8
2019-Jul-17 15:31S 41°23' E 174°38'1019.7
2019-Jul-17 15:00S 41°17' E 174°27'816.9
2019-Jul-17 14:30S 41°13' E 174°17'713.3
2019-Jul-17 14:01S 41°14' E 174°09'713.6
2019-Jul-17 13:30S 41°17' E 174°01'0 0.3
2019-Jul-17 12:58S 41°17' E 174°00'0 0.0
2019-Jul-17 12:28S 41°17' E 174°00'0 0.0
2019-Jul-17 11:58S 41°17' E 174°00'0 0.0
2019-Jul-17 11:30S 41°17' E 174°00'2 3.1
2019-Jul-17 11:01S 41°16' E 174°01'612.5
2019-Jul-17 10:31S 41°15' E 174°09'613.0
2019-Jul-17 10:00S 41°13' E 174°18'918.2
2019-Jul-17 09:30S 41°17' E 174°28'1020.6
2019-Jul-17 09:00S 41°22' E 174°40'917.3
2019-Jul-17 08:30S 41°20' E 174°51'5 9.2
2019-Jul-17 08:00S 41°16' E 174°47'0 0.0
2019-Jul-17 07:30S 41°16' E 174°47'0 0.0
2019-Jul-17 07:00S 41°16' E 174°47'0 0.0
2019-Jul-17 06:30S 41°16' E 174°47'0 0.0
2019-Jul-17 06:00S 41°16' E 174°47'0 0.0
2019-Jul-17 05:30S 41°16' E 174°47'2 4.0
2019-Jul-17 05:00S 41°16' E 174°50'815.5
2019-Jul-17 04:30S 41°23' E 174°46'1020.9
2019-Jul-17 04:01S 41°20' E 174°33'1122.2
2019-Jul-17 03:31S 41°14' E 174°21'714.6
2019-Jul-17 03:01S 41°15' E 174°11'713.3
2019-Jul-17 02:31S 41°15' E 174°02'3 4.8
2019-Jul-17 01:58S 41°17' E 174°00'0 0.0
2019-Jul-17 01:28S 41°17' E 174°00'0 0.0
2019-Jul-17 00:58S 41°17' E 174°00'0 0.0
2019-Jul-17 00:28S 41°17' E 174°00'0 0.1
2019-Jul-17 00:00S 41°17' E 174°00'510.1
2019-Jul-16 23:31S 41°14' E 174°06'612.0
2019-Jul-16 23:00S 41°14' E 174°14'612.7
2019-Jul-16 22:30S 41°14' E 174°22'918.9
2019-Jul-16 22:00S 41°20' E 174°33'918.5
2019-Jul-16 21:30S 41°23' E 174°44'715.0
2019-Jul-16 21:00S 41°17' E 174°50'2 4.4
2019-Jul-16 20:28S 41°16' E 174°47'0 0.0
2019-Jul-16 19:58S 41°16' E 174°47'0 0.0
2019-Jul-16 19:28S 41°16' E 174°47'0 0.0
2019-Jul-16 18:58S 41°16' E 174°47'0 0.0
2019-Jul-16 18:28S 41°16' E 174°47'0 0.0
2019-Jul-16 17:58S 41°16' E 174°47'0 0.0
2019-Jul-16 17:28S 41°16' E 174°47'0 0.4
2019-Jul-16 17:00S 41°16' E 174°47'612.7
2019-Jul-16 16:30S 41°22' E 174°50'816.9
2019-Jul-16 16:00S 41°23' E 174°39'1020.2
2019-Jul-16 15:30S 41°18' E 174°27'612.5
2019-Jul-16 15:01S 41°14' E 174°20'611.5
2019-Jul-16 14:30S 41°14' E 174°13'713.1
2019-Jul-16 14:00S 41°15' E 174°04'4 7.0
2019-Jul-16 13:29S 41°17' E 174°00'0 0.0
2019-Jul-16 12:59S 41°17' E 174°00'0 0.0
2019-Jul-16 12:29S 41°17' E 174°00'0 0.0
2019-Jul-16 11:59S 41°17' E 174°00'0 0.0
2019-Jul-16 11:30S 41°17' E 174°00'4 8.4
2019-Jul-16 11:01S 41°14' E 174°05'611.8
2019-Jul-16 10:30S 41°14' E 174°12'612.4
2019-Jul-16 10:01S 41°14' E 174°21'1020.7
2019-Jul-16 09:30S 41°19' E 174°32'1020.4
2019-Jul-16 09:01S 41°23' E 174°45'713.9
2019-Jul-16 08:31S 41°16' E 174°49'1 2.2
2019-Jul-16 08:00S 41°16' E 174°47'0 0.0
2019-Jul-16 07:30S 41°16' E 174°47'0 0.0
2019-Jul-16 07:00S 41°16' E 174°47'0 0.0
2019-Jul-16 06:30S 41°16' E 174°47'0 0.0
2019-Jul-16 06:00S 41°16' E 174°47'1 2.7
2019-Jul-16 05:30S 41°16' E 174°49'714.4
2019-Jul-16 05:00S 41°23' E 174°48'917.8
2019-Jul-16 04:31S 41°22' E 174°37'1020.1
2019-Jul-16 04:00S 41°17' E 174°25'815.2
2019-Jul-16 03:31S 41°14' E 174°16'612.3
2019-Jul-16 03:01S 41°14' E 174°08'612.6
2019-Jul-16 02:30S 41°17' E 174°00'0 0.0
2019-Jul-16 01:59S 41°17' E 174°00'0 0.0
2019-Jul-16 01:29S 41°17' E 174°00'0 0.0
2019-Jul-16 00:59S 41°17' E 174°00'0 0.0
2019-Jul-16 00:29S 41°17' E 174°00'3 5.5
2019-Jul-16 00:00S 41°15' E 174°02'612.1
2019-Jul-15 23:31S 41°15' E 174°10'612.6
2019-Jul-15 23:01S 41°13' E 174°18'714.4
2019-Jul-15 22:31S 41°17' E 174°26'917.0
2019-Jul-15 22:00S 41°21' E 174°36'917.2
2019-Jul-15 21:31S 41°22' E 174°47'612.8
2019-Jul-15 21:01S 41°16' E 174°48'0 0.7
2019-Jul-15 20:30S 41°16' E 174°47'0 0.0
2019-Jul-15 20:00S 41°16' E 174°47'0 0.0
2019-Jul-15 19:30S 41°16' E 174°47'0 0.0
2019-Jul-15 19:00S 41°16' E 174°47'0 0.0
2019-Jul-15 18:30S 41°16' E 174°47'0 0.1
2019-Jul-15 18:00S 41°16' E 174°47'510.4
2019-Jul-15 17:30S 41°20' E 174°51'713.6
2019-Jul-15 17:00S 41°23' E 174°43'714.3
2019-Jul-15 16:30S 41°21' E 174°34'815.8
2019-Jul-15 16:01S 41°17' E 174°25'713.5
2019-Jul-15 15:30S 41°13' E 174°17'612.2
2019-Jul-15 15:01S 41°14' E 174°09'713.6
2019-Jul-15 14:30S 41°17' E 174°01'1 1.1
2019-Jul-15 14:00S 41°17' E 174°00'0 0.0
2019-Jul-15 13:30S 41°17' E 174°00'0 0.0
2019-Jul-15 13:00S 41°17' E 174°00'0 0.0
2019-Jul-15 12:30S 41°17' E 174°00'2 3.2
2019-Jul-15 12:00S 41°16' E 174°01'0 0.9
2019-Jul-15 11:30S 41°16' E 174°01'612.8
2019-Jul-15 11:00S 41°14' E 174°09'611.5
2019-Jul-15 10:30S 41°13' E 174°17'612.7
2019-Jul-15 10:00S 41°16' E 174°25'714.4
2019-Jul-15 09:31S 41°20' E 174°33'815.3
2019-Jul-15 09:01S 41°23' E 174°42'815.6
2019-Jul-15 08:30S 41°19' E 174°51'4 8.5
2019-Jul-15 08:00S 41°16' E 174°47'0 0.0
2019-Jul-15 07:24S 41°16' E 174°47'0 0.0
2019-Jul-15 07:00S 41°16' E 174°47'0 0.0
2019-Jul-15 06:30S 41°16' E 174°47'0 0.0
2019-Jul-15 06:00S 41°16' E 174°47'0 0.0
2019-Jul-15 05:30S 41°16' E 174°47'4 8.2
2019-Jul-15 05:00S 41°19' E 174°51'713.9
2019-Jul-15 04:30S 41°23' E 174°45'714.9
2019-Jul-15 04:01S 41°21' E 174°35'1019.4
2019-Jul-15 03:31S 41°17' E 174°24'613.0
2019-Jul-15 03:01S 41°14' E 174°16'612.1
2019-Jul-15 02:30S 41°14' E 174°08'612.9
2019-Jul-15 02:00S 41°17' E 174°00'0 0.0
2019-Jul-15 01:28S 41°17' E 174°00'0 0.0
2019-Jul-15 00:58S 41°17' E 174°00'0 0.0
2019-Jul-15 00:29S 41°17' E 174°00'2 5.2
2019-Jul-15 00:00S 41°15' E 174°02'612.8
2019-Jul-14 23:30S 41°15' E 174°11'713.3
2019-Jul-14 23:01S 41°13' E 174°19'816.0
2019-Jul-14 22:30S 41°17' E 174°28'815.0
2019-Jul-14 22:00S 41°21' E 174°36'714.3
2019-Jul-14 21:30S 41°23' E 174°45'713.5
2019-Jul-14 21:01S 41°17' E 174°50'2 4.7
2019-Jul-14 20:30S 41°16' E 174°47'0 0.0
2019-Jul-14 20:00S 41°16' E 174°47'0 0.0
2019-Jul-14 19:30S 41°16' E 174°47'0 0.0
2019-Jul-14 19:00S 41°16' E 174°47'0 0.0
2019-Jul-14 18:30S 41°16' E 174°47'0 0.0
2019-Jul-14 18:00S 41°16' E 174°47'0 0.0
2019-Jul-14 17:30S 41°16' E 174°47'0 0.0
2019-Jul-14 17:00S 41°16' E 174°47'0 0.0
2019-Jul-14 16:30S 41°16' E 174°47'0 0.0
2019-Jul-14 16:00S 41°16' E 174°47'4 8.1
2019-Jul-14 15:30S 41°19' E 174°51'713.1
2019-Jul-14 15:00S 41°23' E 174°45'714.5
2019-Jul-14 14:31S 41°22' E 174°36'816.0
2019-Jul-14 14:01S 41°17' E 174°27'815.3
2019-Jul-14 13:30S 41°13' E 174°19'714.5
2019-Jul-14 13:01S 41°15' E 174°10'612.5
2019-Jul-14 12:30S 41°16' E 174°02'2 3.1
2019-Jul-14 11:59S 41°17' E 174°00'0 0.0
2019-Jul-14 11:29S 41°17' E 174°00'2 4.0
2019-Jul-14 11:00S 41°15' E 174°02'611.9
2019-Jul-14 10:31S 41°15' E 174°10'612.5
2019-Jul-14 10:00S 41°13' E 174°18'714.5
2019-Jul-14 09:30S 41°16' E 174°26'815.2
2019-Jul-14 09:01S 41°20' E 174°35'917.2
2019-Jul-14 08:31S 41°23' E 174°46'713.5
2019-Jul-14 08:01S 41°16' E 174°49'2 3.3
2019-Jul-14 07:30S 41°16' E 174°47'0 0.0
2019-Jul-14 07:01S 41°16' E 174°47'1 2.3
2019-Jul-14 06:31S 41°16' E 174°49'3 5.0
2019-Jul-14 06:00S 41°16' E 174°52'2 3.8
2019-Jul-14 05:31S 41°15' E 174°50'2 3.9
2019-Jul-14 05:00S 41°16' E 174°47'0 0.0
2019-Jul-14 04:31S 41°16' E 174°47'0 0.0
2019-Jul-14 04:01S 41°16' E 174°47'0 0.0
2019-Jul-14 03:31S 41°16' E 174°47'0 0.0
2019-Jul-14 03:00S 41°16' E 174°47'0 0.0
2019-Jul-14 02:31S 41°16' E 174°47'0 0.0
2019-Jul-14 02:00S 41°16' E 174°47'0 0.0
2019-Jul-14 01:30S 41°16' E 174°47'0 0.0
2019-Jul-14 01:01S 41°16' E 174°47'0 0.0
2019-Jul-14 00:30S 41°16' E 174°47'0 0.0
2019-Jul-14 00:01S 41°16' E 174°47'0 0.0
2019-Jul-13 23:31S 41°16' E 174°47'0 0.0
2019-Jul-13 23:00S 41°16' E 174°47'0 0.0
2019-Jul-13 22:31S 41°16' E 174°47'0 0.0
2019-Jul-13 22:01S 41°16' E 174°47'0 0.0
2019-Jul-13 21:30S 41°16' E 174°47'1 1.1
2019-Jul-13 21:01S 41°16' E 174°48'2 3.2
2019-Jul-13 20:31S 41°16' E 174°50'1 1.5
2019-Jul-13 20:00S 41°15' E 174°50'1 1.1
2019-Jul-13 19:31S 41°15' E 174°50'0 0.5
2019-Jul-13 19:01S 41°15' E 174°49'1 1.7
2019-Jul-13 18:31S 41°16' E 174°50'1 1.8
2019-Jul-13 18:01S 41°15' E 174°49'1 2.7
2019-Jul-13 17:31S 41°16' E 174°48'0 0.8
2019-Jul-13 16:58S 41°16' E 174°47'0 0.0
2019-Jul-13 16:28S 41°16' E 174°47'0 0.0
2019-Jul-13 15:58S 41°16' E 174°47'0 0.0
2019-Jul-13 15:28S 41°16' E 174°47'0 0.0
2019-Jul-13 14:58S 41°16' E 174°47'0 0.0
2019-Jul-13 14:29S 41°16' E 174°47'0 0.0
2019-Jul-13 14:00S 41°16' E 174°47'0 0.0
2019-Jul-13 13:30S 41°16' E 174°47'3 5.2
2019-Jul-13 13:00S 41°16' E 174°51'714.7
2019-Jul-13 12:30S 41°24' E 174°48'917.8
2019-Jul-13 12:01S 41°22' E 174°36'918.2
2019-Jul-13 11:31S 41°17' E 174°26'815.7
2019-Jul-13 11:00S 41°13' E 174°17'713.3
2019-Jul-13 10:30S 41°14' E 174°08'713.5
2019-Jul-13 10:00S 41°17' E 174°00'0 0.0
2019-Jul-13 09:30S 41°17' E 174°00'0 0.0
2019-Jul-13 09:00S 41°17' E 174°00'0 0.0
2019-Jul-13 08:30S 41°17' E 174°00'1 2.2
2019-Jul-13 08:00S 41°16' E 174°01'713.1
2019-Jul-13 07:30S 41°14' E 174°09'612.3
2019-Jul-13 07:00S 41°13' E 174°17'815.7
2019-Jul-13 06:30S 41°17' E 174°27'917.5
2019-Jul-13 06:00S 41°21' E 174°36'917.8
2019-Jul-13 05:30S 41°22' E 174°48'612.5
2019-Jul-13 05:00S 41°16' E 174°48'1 1.2
2019-Jul-13 04:30S 41°16' E 174°47'0 0.0
2019-Jul-13 04:00S 41°16' E 174°47'0 0.0
2019-Jul-13 03:30S 41°16' E 174°47'0 0.0
2019-Jul-13 03:00S 41°16' E 174°47'0 0.0
2019-Jul-13 02:30S 41°16' E 174°47'0 0.0
2019-Jul-13 01:57S 41°16' E 174°47'0 0.0
2019-Jul-13 01:27S 41°16' E 174°47'0 0.0
2019-Jul-13 01:00S 41°16' E 174°47'0 0.0
2019-Jul-13 00:30S 41°16' E 174°47'0 0.0
2019-Jul-13 00:00S 41°16' E 174°47'510.0
2019-Jul-12 23:30S 41°20' E 174°51'714.7
2019-Jul-12 23:00S 41°23' E 174°42'1019.6
2019-Jul-12 22:30S 41°19' E 174°30'918.9
2019-Jul-12 22:00S 41°14' E 174°20'815.0
2019-Jul-12 21:30S 41°15' E 174°10'713.1
2019-Jul-12 21:00S 41°15' E 174°02'2 3.6
2019-Jul-12 20:28S 41°17' E 174°00'0 0.0
2019-Jul-12 19:58S 41°17' E 174°00'0 0.0
2019-Jul-12 19:28S 41°17' E 174°00'0 0.0
2019-Jul-12 18:59S 41°17' E 174°00'2 3.8
2019-Jul-12 18:30S 41°15' E 174°02'612.4
2019-Jul-12 18:01S 41°15' E 174°10'714.6
2019-Jul-12 17:31S 41°13' E 174°19'714.7
2019-Jul-12 17:00S 41°17' E 174°27'714.2
2019-Jul-12 16:30S 41°21' E 174°35'815.0
2019-Jul-12 16:00S 41°23' E 174°45'612.7
2019-Jul-12 15:30S 41°19' E 174°51'4 8.0
2019-Jul-12 15:00S 41°16' E 174°47'0 0.0
2019-Jul-12 14:28S 41°16' E 174°47'0 0.0
2019-Jul-12 13:58S 41°16' E 174°47'0 0.0
2019-Jul-12 13:28S 41°16' E 174°47'1 2.2
2019-Jul-12 13:00S 41°16' E 174°48'611.7
2019-Jul-12 12:30S 41°22' E 174°50'713.9
2019-Jul-12 12:00S 41°23' E 174°41'816.7
2019-Jul-12 11:30S 41°19' E 174°31'816.2
2019-Jul-12 11:00S 41°15' E 174°22'612.5
2019-Jul-12 10:30S 41°14' E 174°14'713.5
2019-Jul-12 10:00S 41°14' E 174°05'4 8.1
2019-Jul-12 09:30S 41°17' E 174°00'0 0.0
2019-Jul-12 09:00S 41°17' E 174°00'0 0.0
2019-Jul-12 08:30S 41°17' E 174°00'1 2.6
2019-Jul-12 08:00S 41°16' E 174°01'612.6
2019-Jul-12 07:30S 41°14' E 174°09'612.3
2019-Jul-12 07:00S 41°13' E 174°17'714.2
2019-Jul-12 06:30S 41°16' E 174°26'  

Dump ship's entire track history